createdAt,value
2022-07-31T00:01:17.235Z,97983.69292441219
2022-07-31T00:04:17.773Z,97981.67582800721
2022-07-31T00:07:17.728Z,97984.85970170631
2022-07-31T00:11:16.417Z,97982.36383049811
2022-07-31T00:14:16.654Z,97983.88677278688
2022-07-31T00:17:16.473Z,97982.06543307424
2022-07-31T00:21:16.359Z,97980.4930020642
2022-07-31T00:24:16.718Z,97981.63881492993
2022-07-31T00:27:16.917Z,97976.37856811195
2022-07-31T00:31:20.197Z,97977.43509317112
2022-07-31T00:34:18.786Z,97973.46855021524
2022-07-31T00:37:18.243Z,97966.99796624808
2022-07-31T00:41:17.078Z,97961.89528117645
2022-07-31T00:44:18.426Z,97965.10084409607
2022-07-31T00:47:18.409Z,97960.80893310336
2022-07-31T00:51:17.489Z,97967.01976095497
2022-07-31T00:54:22.450Z,97961.66825656025
2022-07-31T00:57:17.996Z,97961.9511062332
2022-07-31T01:01:16.392Z,97956.87124618526
2022-07-31T01:04:19.875Z,97952.31525409251
2022-07-31T01:07:16.987Z,97951.71842182224
2022-07-31T01:11:24.384Z,97944.57587714148
2022-07-31T01:14:21.088Z,97944.87984171556
2022-07-31T01:17:20.005Z,97942.65901899003
2022-07-31T01:21:22.091Z,97937.86346768931
2022-07-31T01:24:35.475Z,97935.8946728447
2022-07-31T01:27:25.956Z,97936.64802556024
2022-07-31T01:31:27.167Z,97938.86818709831
2022-07-31T01:34:26.423Z,97939.36527870066
2022-07-31T01:37:26.863Z,97938.73331565174
2022-07-31T01:41:20.417Z,97934.96716680394
2022-07-31T01:44:19.869Z,97932.50154302863
2022-07-31T01:47:20.746Z,97931.01944824963
2022-07-31T01:51:18.091Z,97933.62529545327
2022-07-31T01:54:18.972Z,97934.45391518745
2022-07-31T01:57:18.942Z,97935.86176011227
2022-07-31T02:01:18.745Z,97934.48877283197
2022-07-31T02:04:19.121Z,97937.5327911682
2022-07-31T02:07:19.143Z,97941.36027969906
2022-07-31T02:11:18.440Z,97939.09946408328
2022-07-31T02:14:18.452Z,97937.08981222736
2022-07-31T02:17:22.630Z,97938.44042124167
2022-07-31T02:21:16.960Z,97939.14548418995
2022-07-31T02:24:17.295Z,97940.13900508336
2022-07-31T02:27:57.266Z,97940.16350427516
2022-07-31T02:31:17.723Z,97937.92577115404
2022-07-31T02:34:18.794Z,97936.09309554556
2022-07-31T02:37:18.691Z,97934.02413445136
2022-07-31T02:41:17.384Z,97932.70937283174
2022-07-31T02:44:18.087Z,97929.44470493293
2022-07-31T02:47:16.962Z,97926.36990896726
2022-07-31T02:51:17.076Z,97926.62686546436
2022-07-31T02:54:18.059Z,97921.9390494056
2022-07-31T02:57:18.113Z,97925.20643261864
2022-07-31T03:01:16.158Z,97927.7024165072
2022-07-31T03:04:16.969Z,97921.57713530102
2022-07-31T03:07:17.998Z,97916.91936702571
2022-07-31T03:11:17.568Z,97911.89904176159
2022-07-31T03:14:18.587Z,97908.02350543374
2022-07-31T03:17:18.576Z,97904.57388352262
2022-07-31T03:21:17.693Z,97902.66547488095
2022-07-31T03:24:17.169Z,97909.11241718785
2022-07-31T03:27:16.802Z,97909.07544284595
2022-07-31T03:31:15.816Z,97909.42372217597
2022-07-31T03:34:16.479Z,97904.3895225556
2022-07-31T03:37:16.418Z,97902.44486587589
2022-07-31T03:41:16.547Z,97905.8779678364
2022-07-31T03:44:17.646Z,97904.0289197092
2022-07-31T03:47:16.911Z,97903.883834607
2022-07-31T03:51:16.054Z,97907.68565273022
2022-07-31T03:54:16.631Z,97904.77221480086
2022-07-31T04:01:16.652Z,97903.87117790534
2022-07-31T04:04:18.005Z,97907.82911066107
2022-07-31T04:07:16.422Z,97909.92128767884
2022-07-31T04:11:19.254Z,97915.70328173117
2022-07-31T04:14:19.278Z,97920.55623332587
2022-07-31T04:17:19.337Z,97916.57920541297
2022-07-31T04:21:16.439Z,97917.0123366839
2022-07-31T04:24:18.567Z,97920.42222452955
2022-07-31T04:27:17.938Z,97918.32542728752
2022-07-31T04:31:18.354Z,97918.29979389606
2022-07-31T04:34:18.493Z,97920.84591151566
2022-07-31T04:37:18.676Z,97926.17072525041
2022-07-31T04:41:17.821Z,97927.10880866606
2022-07-31T04:44:17.140Z,97932.71568439121
2022-07-31T04:47:17.404Z,97933.6123479386
2022-07-31T04:51:17.379Z,97933.73387111425
2022-07-31T04:54:17.021Z,97928.38079000635
2022-07-31T04:57:21.560Z,97921.95915156948
2022-07-31T05:01:16.472Z,97918.1716811311
2022-07-31T05:04:17.413Z,97923.63012996482
2022-07-31T05:07:16.681Z,97930.88574691954
2022-07-31T05:11:26.037Z,97927.672716332
2022-07-31T05:14:20.468Z,97926.42984684241
2022-07-31T05:17:19.199Z,97927.92144642836
2022-07-31T05:21:17.734Z,97931.02639013896
2022-07-31T05:24:17.203Z,97923.22715835276
2022-07-31T05:27:17.251Z,97928.26611826081
2022-07-31T05:31:17.448Z,97925.2718013083
2022-07-31T05:34:17.455Z,97931.43342911072
2022-07-31T05:37:16.890Z,97933.29138381932
2022-07-31T05:41:16.160Z,97938.32114373369
2022-07-31T05:51:16.453Z,97943.11733396465
2022-07-31T05:54:17.056Z,97949.79949328567
2022-07-31T06:01:17.677Z,97955.90580418966
2022-07-31T06:04:17.311Z,97949.93535388444
2022-07-31T06:07:17.309Z,97945.35387820685
2022-07-31T06:11:17.469Z,97947.07259678551
2022-07-31T06:14:17.338Z,97946.30919542229
2022-07-31T06:17:17.313Z,97943.04380677624
2022-07-31T06:31:17.764Z,97951.87274022901
2022-07-31T06:34:19.882Z,97951.02534111627
2022-07-31T06:37:17.128Z,97946.88996095635
2022-07-31T06:41:44.787Z,97944.90257860108
2022-07-31T06:51:31.290Z,97944.91413053508
2022-07-31T06:54:19.850Z,97941.10787661001
2022-07-31T06:57:17.176Z,97934.03929910828
2022-07-31T07:01:16.657Z,97934.81521937886
2022-07-31T07:04:16.778Z,97939.57795732774
2022-07-31T07:07:17.111Z,97936.54052725468
2022-07-31T07:11:17.328Z,97945.63254041958
2022-07-31T07:14:17.334Z,97942.2322243915
2022-07-31T07:17:17.261Z,97942.1547546305
2022-07-31T07:21:16.737Z,97946.08281396655
2022-07-31T07:24:16.831Z,97947.98176435006
2022-07-31T07:27:16.833Z,97945.92390796005
2022-07-31T07:31:16.414Z,97951.50579633964
2022-07-31T07:34:16.877Z,97956.28914357597
2022-07-31T07:37:16.965Z,97959.71907202809
2022-07-31T07:41:18.500Z,97959.72643775323
2022-07-31T07:44:17.207Z,97959.21973039358
2022-07-31T07:47:17.242Z,97958.8495338408
2022-07-31T07:51:17.050Z,97957.09320760719
2022-07-31T07:54:16.937Z,97958.21942139194
2022-07-31T08:11:17.275Z,97970.37508798421
2022-07-31T08:14:17.363Z,97969.78644654005
2022-07-31T08:21:44.820Z,97963.19514955804
2022-07-31T08:24:19.359Z,97965.12664891113
2022-07-31T08:27:40.340Z,97960.08652568214
2022-07-31T08:31:15.885Z,97966.38595092371
2022-07-31T08:34:41.966Z,97964.3654142907
2022-07-31T08:37:57.591Z,97966.43030852868
2022-07-31T08:41:17.095Z,97964.57245073558
2022-07-31T08:44:17.432Z,97955.37544061158
2022-07-31T08:47:18.862Z,97951.74128233956
2022-07-31T08:51:17.307Z,97957.87795689574
2022-07-31T09:01:19.213Z,97969.37428092738
2022-07-31T09:04:18.849Z,97967.3025126684
2022-07-31T09:07:17.925Z,97972.45003360728
2022-07-31T09:31:16.468Z,97949.88834138766
2022-07-31T09:34:26.705Z,97948.83170727844
2022-07-31T09:51:39.052Z,97945.69100582553
2022-07-31T10:01:33.782Z,97932.01957820974
2022-07-31T11:31:16.634Z,97860.46358290798
2022-07-31T11:34:22.080Z,97852.90008206043
2022-07-31T11:37:19.705Z,97854.85036877134
2022-07-31T11:41:22.094Z,97843.74796997437
2022-07-31T12:01:40.751Z,97830.26768556795
2022-07-31T12:11:20.171Z,97822.35526185406
2022-07-31T12:21:17.941Z,97809.46441273142
2022-07-31T12:31:18.679Z,97800.75510160322
2022-07-31T12:41:21.891Z,97800.26801207586
2022-07-31T12:51:45.818Z,97793.2118076198
2022-07-31T13:01:19.474Z,97783.82706999956
2022-07-31T13:11:18.131Z,97768.59877535321
2022-07-31T13:21:18.556Z,97760.06867512461
2022-07-31T13:41:39.227Z,97743.5671246296
2022-07-31T13:51:19.059Z,97733.04660194628
2022-07-31T14:01:18.038Z,97737.3802246407
2022-07-31T14:11:17.913Z,97725.38683025686
2022-07-31T14:21:18.691Z,97711.35607966641
2022-07-31T14:31:18.921Z,97714.3780721526
2022-07-31T14:41:17.643Z,97711.35925443396
2022-07-31T14:51:19.153Z,97705.28067350951
2022-07-31T15:21:19.143Z,97698.8204560562
2022-07-31T15:31:18.993Z,97715.5649861068
2022-07-31T15:41:19.237Z,97722.93062469733
2022-07-31T15:51:19.045Z,97706.33577136537
2022-07-31T16:01:18.107Z,97723.92192359467
2022-07-31T16:11:22.442Z,97730.4360039976
2022-07-31T16:21:17.901Z,97723.51023402909
2022-07-31T16:31:30.069Z,97733.40637998085
2022-07-31T16:51:17.234Z,97731.36257041093
2022-07-31T17:01:58.182Z,97747.2881327084
2022-07-31T17:11:17.498Z,97740.26874464021
2022-07-31T17:21:17.998Z,97746.908505418
2022-07-31T17:31:16.964Z,97755.29534163294
2022-07-31T17:41:24.873Z,97767.4415278824
2022-07-31T17:51:17.738Z,97780.78059907546
2022-07-31T18:01:29.096Z,97804.34939328852
2022-07-31T18:04:27.955Z,97801.34333014445
2022-07-31T18:07:28.612Z,97809.2753418911
2022-07-31T18:21:18.133Z,97825.29382957391
2022-07-31T18:24:17.650Z,97822.9234845693
2022-07-31T18:27:18.305Z,97829.44766665857
2022-07-31T18:31:32.336Z,97832.21820761311
2022-07-31T18:34:19.549Z,97832.87146726293
2022-07-31T18:41:16.730Z,97841.02491456001
2022-07-31T18:44:22.293Z,97844.49299119337
2022-07-31T19:01:17.956Z,97862.63935081009
2022-07-31T19:04:18.069Z,97863.03858476947
2022-07-31T19:07:17.743Z,97870.7302689042
2022-07-31T19:11:18.899Z,97878.68060061093
2022-07-31T19:14:18.584Z,97883.57937013208
2022-07-31T19:17:21.497Z,97886.87541533557
2022-07-31T19:31:18.361Z,97903.70494459404
2022-07-31T19:34:18.403Z,97905.34505048869
2022-07-31T19:37:19.262Z,97913.27920751127
2022-07-31T19:41:19.176Z,97921.67910173263
2022-07-31T20:01:38.287Z,97932.20745843698
2022-07-31T20:11:29.034Z,97930.31990459484
2022-07-31T20:31:28.797Z,97922.8682892643
2022-07-31T20:34:29.260Z,97922.0799488435
2022-07-31T20:39:01.452Z,97924.96926652417
2022-07-31T20:51:22.530Z,97921.52855078374
2022-07-31T20:54:19.285Z,97925.45112533009
2022-07-31T20:57:19.077Z,97922.43351223694
2022-07-31T21:01:20.554Z,97928.52855647758
2022-07-31T21:04:19.976Z,97928.91083288036
2022-07-31T21:07:19.023Z,97932.60516419358
2022-07-31T21:11:19.466Z,97925.89808394278
2022-07-31T21:14:18.731Z,97928.21040450198
2022-07-31T21:17:20.684Z,97923.39400311655
2022-07-31T21:21:18.672Z,97927.01474875922
2022-07-31T21:24:18.072Z,97926.77529009293
2022-07-31T21:27:19.094Z,97928.27989883075
2022-07-31T21:31:18.202Z,97927.9892913809
2022-07-31T21:51:17.818Z,97935.89552081635
2022-07-31T21:54:18.160Z,97934.92872713887
2022-07-31T21:57:17.354Z,97937.15389301462
2022-07-31T22:01:17.594Z,97942.09007325547
2022-07-31T22:04:17.235Z,97943.94668108279
2022-07-31T22:07:41.280Z,97940.48720442974
2022-07-31T22:11:16.755Z,97938.93308880394
2022-07-31T22:14:17.207Z,97943.9235359715
2022-07-31T22:17:17.225Z,97942.12618003417
2022-07-31T22:21:16.911Z,97946.7069760647
2022-07-31T22:24:17.001Z,97947.2163594714
2022-07-31T22:28:24.089Z,97948.67268556199
2022-07-31T22:31:28.099Z,97954.63872250533
2022-07-31T22:34:37.066Z,97953.24321516276
2022-07-31T22:37:28.566Z,97958.38375388709
2022-07-31T22:51:16.551Z,97958.75842562126
2022-07-31T22:54:16.859Z,97959.13526257736
2022-07-31T22:57:16.844Z,97952.7832116086
2022-07-31T23:01:15.922Z,97949.5628335431
2022-07-31T23:11:18.562Z,97947.83801857286
2022-07-31T23:14:18.506Z,97948.38520824155
2022-07-31T23:17:23.434Z,97946.9495650527
2022-07-31T23:21:16.495Z,97948.225331365
2022-07-31T23:24:16.829Z,97946.70997874798
2022-07-31T23:27:16.487Z,97949.99063809402
2022-07-31T23:31:16.945Z,97943.69473527436
2022-07-31T23:34:17.470Z,97945.23605266098
2022-07-31T23:37:16.981Z,97947.453842392
2022-07-31T23:42:37.738Z,97951.22977578484
2022-07-31T23:44:18.628Z,97956.86347202574
2022-07-31T23:47:17.193Z,97957.37183093328
2022-07-31T23:51:16.895Z,97955.73263369183
2022-07-31T23:54:17.086Z,97957.86761741262
